Time;durP1;ratioP1;P1;durP2;ratioP2;P2;SDS_P1;SDS_P2;PMS_P1;PMS_P2;Temp;Humidity;BMP_temperature;BMP_pressure;BME280_temperature;BME280_humidity;BME280_pressure;Samples;Min_cycle;Max_cycle;Signal;HPM_P1;HPM_P2
2022/06/02 00:02:06;;;;;;;5.43;4.78;;;15.20;85.80;;;;;;5074578;28;20052;-77
2022/06/02 00:04:42;;;;;;;7.60;5.35;;;15.00;86.50;;;;;;5071003;28;20020;-77
2022/06/02 00:07:32;;;;;;;6.05;4.85;;;14.90;86.80;;;;;;5074347;28;20104;-77
2022/06/02 00:10:27;;;;;;;4.97;4.35;;;14.90;87.20;;;;;;5074026;28;20032;-77
2022/06/02 00:13:01;;;;;;;6.55;4.78;;;14.80;87.50;;;;;;5074410;28;20024;-77
2022/06/02 00:15:34;;;;;;;8.98;4.95;;;14.80;87.80;;;;;;5073892;28;20457;-77
2022/06/02 00:18:35;;;;;;;5.18;4.72;;;14.70;88.10;;;;;;5073732;28;20115;-77
2022/06/02 00:21:33;;;;;;;4.72;3.70;;;14.70;88.10;;;;;;5050939;28;20033;-77
2022/06/02 00:24:17;;;;;;;6.60;5.95;;;14.80;88.10;;;;;;5073927;28;20064;-77
2022/06/02 00:27:07;;;;;;;6.80;5.40;;;14.70;88.10;;;;;;5073936;28;20021;-77
2022/06/02 00:29:45;;;;;;;8.18;5.28;;;14.70;88.50;;;;;;5073801;28;20040;-77
2022/06/02 00:32:36;;;;;;;5.75;5.25;;;14.70;88.60;;;;;;5073767;28;20081;-76
2022/06/02 00:35:21;;;;;;;6.90;5.65;;;14.70;88.50;;;;;;5068733;28;20361;-77
2022/06/02 00:37:50;;;;;;;6.30;5.30;;;14.70;88.60;;;;;;5073668;28;20412;-77
2022/06/02 00:40:17;;;;;;;5.10;4.68;;;14.70;88.70;;;;;;5073885;28;20025;-77
2022/06/02 00:43:13;;;;;;;6.40;5.72;;;14.70;88.50;;;;;;5073498;28;20380;-77
2022/06/02 00:45:43;;;;;;;6.40;5.70;;;14.70;88.70;;;;;;5073835;28;20071;-77
2022/06/02 00:48:27;;;;;;;7.80;6.00;;;14.70;88.90;;;;;;5073249;28;20059;-77
2022/06/02 00:51:05;;;;;;;5.88;5.28;;;14.60;89.20;;;;;;5073305;28;20115;-77
2022/06/02 00:53:33;;;;;;;6.60;6.00;;;14.60;89.30;;;;;;5073517;28;20028;-77
2022/06/02 00:59:26;;;;;;;7.10;6.13;;;14.60;89.00;;;;;;5073706;28;20415;-77
2022/06/02 01:01:52;;;;;;;6.45;5.85;;;14.70;88.90;;;;;;5073564;28;20070;-77
2022/06/02 01:04:19;;;;;;;7.30;6.10;;;14.60;89.10;;;;;;5073532;28;20020;-77
2022/06/02 01:07:12;;;;;;;8.23;6.60;;;14.60;89.20;;;;;;5073300;28;20504;-77
2022/06/02 01:09:47;;;;;;;9.63;6.68;;;14.50;89.60;;;;;;5073284;28;20099;-77
2022/06/02 01:12:45;;;;;;;6.80;6.20;;;14.40;90.00;;;;;;5073170;28;20382;-77
2022/06/02 01:15:35;;;;;;;6.93;6.32;;;14.40;90.10;;;;;;5073242;28;20028;-77
2022/06/02 01:18:16;;;;;;;9.57;7.47;;;14.30;90.20;;;;;;5073262;28;20028;-77
2022/06/02 01:20:51;;;;;;;8.10;6.95;;;14.30;90.30;;;;;;5073094;28;20547;-77
2022/06/02 01:23:29;;;;;;;7.45;6.60;;;14.30;90.40;;;;;;5073199;28;20033;-77
2022/06/02 01:26:44;;;;;;;8.23;6.70;;;14.30;90.40;;;;;;5073097;28;20059;-76
2022/06/02 01:29:54;;;;;;;7.50;6.68;;;14.40;90.40;;;;;;5067786;28;20040;-77
2022/06/02 01:32:41;;;;;;;8.60;6.75;;;14.40;90.30;;;;;;5077358;28;20055;-77
2022/06/02 01:35:12;;;;;;;7.25;6.45;;;14.40;90.30;;;;;;5077203;28;20025;-77
2022/06/02 01:37:56;;;;;;;7.43;6.20;;;14.40;90.20;;;;;;5077073;28;20460;-77
2022/06/02 01:40:50;;;;;;;;;;;14.40;90.20;;;;;;5077800;28;20116;-77
2022/06/02 01:43:23;;;;;;;8.55;6.60;;;14.40;90.30;;;;;;5022176;28;19911;-77
2022/06/02 01:46:25;;;;;;;9.82;7.53;;;14.40;90.40;;;;;;5077331;28;20028;-77
2022/06/02 01:49:04;;;;;;;8.35;7.43;;;14.40;90.40;;;;;;5076992;28;20122;-77
2022/06/02 01:51:39;;;;;;;9.00;8.10;;;14.30;90.60;;;;;;5076876;28;20047;-77
2022/06/02 01:54:25;;;;;;;8.82;7.43;;;14.20;90.70;;;;;;5076722;28;20103;-77
2022/06/02 01:57:13;;;;;;;9.50;7.47;;;14.20;90.90;;;;;;5076542;28;20097;-77
2022/06/02 02:00:05;;;;;;;9.50;7.43;;;14.20;90.90;;;;;;5076794;28;20025;-77
2022/06/02 02:02:51;;;;;;;7.78;6.68;;;14.20;90.90;;;;;;5076790;28;20078;-77
2022/06/02 02:05:39;;;;;;;9.55;7.85;;;14.20;90.80;;;;;;5076638;28;20107;-77
2022/06/02 02:08:19;;;;;;;10.63;8.93;;;14.20;90.70;;;;;;5076332;28;20426;-77
2022/06/02 02:11:00;;;;;;;9.48;8.45;;;14.10;90.90;;;;;;5076629;28;20078;-77
2022/06/02 02:13:57;;;;;;;8.98;8.10;;;13.90;91.20;;;;;;5076492;28;20024;-77
2022/06/02 02:16:34;;;;;;;7.85;7.15;;;13.90;91.40;;;;;;5076143;28;20486;-77
2022/06/02 02:19:03;;;;;;;7.07;6.38;;;13.90;91.30;;;;;;5076518;28;20099;-77
2022/06/02 02:21:37;;;;;;;7.32;6.05;;;14.00;91.20;;;;;;5076566;28;20024;-77
2022/06/02 02:24:17;;;;;;;8.02;6.55;;;14.10;91.10;;;;;;5076144;28;20021;-77
2022/06/02 02:27:07;;;;;;;7.03;6.32;;;14.20;90.90;;;;;;5076245;28;20021;-76
2022/06/02 02:29:51;;;;;;;7.90;7.10;;;14.20;90.70;;;;;;5075740;28;20028;-77
2022/06/02 02:32:46;;;;;;;7.85;7.10;;;14.30;90.60;;;;;;5076076;28;20490;-77
2022/06/02 02:35:24;;;;;;;8.60;7.80;;;14.30;90.50;;;;;;5076104;28;20017;-77
2022/06/02 02:38:17;;;;;;;8.60;7.78;;;14.40;90.50;;;;;;5076296;28;20032;-77
2022/06/02 02:40:51;;;;;;;12.05;8.30;;;14.30;90.50;;;;;;5076135;28;20032;-77
2022/06/02 02:43:46;;;;;;;10.18;8.02;;;14.30;90.50;;;;;;5075776;28;20495;-77
2022/06/02 02:46:20;;;;;;;10.30;9.30;;;14.30;90.50;;;;;;5066333;28;20115;-77
2022/06/02 02:48:59;;;;;;;10.52;9.27;;;14.20;90.50;;;;;;5076158;28;20021;-77
2022/06/02 02:51:27;;;;;;;9.38;8.30;;;14.20;90.70;;;;;;5075662;28;20115;-77
2022/06/02 02:53:59;;;;;;;10.63;9.43;;;14.30;90.70;;;;;;5076019;28;20372;-77
2022/06/02 02:57:05;;;;;;;11.65;9.70;;;14.20;90.80;;;;;;5075519;28;20056;-77
2022/06/02 02:59:31;;;;;;;12.00;10.25;;;14.20;90.90;;;;;;5075808;28;20033;-77
2022/06/02 03:02:20;;;;;;;10.65;9.55;;;14.10;90.90;;;;;;5075503;28;20028;-76
2022/06/02 03:05:21;;;;;;;11.77;10.35;;;14.00;91.10;;;;;;5075351;28;20020;-77
2022/06/02 03:07:47;;;;;;;15.07;11.05;;;14.00;91.20;;;;;;5075815;28;20021;-77
2022/06/02 03:10:22;;;;;;;10.20;9.10;;;14.00;91.20;;;;;;5075413;28;20071;-77
2022/06/02 03:13:12;;;;;;;10.85;9.40;;;14.00;91.20;;;;;;5075479;28;20020;-77
2022/06/02 03:15:58;;;;;;;10.38;9.38;;;14.10;91.20;;;;;;5075449;28;20024;-77
2022/06/02 03:19:21;;;;;;;9.10;8.20;;;14.00;91.10;;;;;;5075220;28;20478;-77
2022/06/02 03:22:00;;;;;;;9.90;8.87;;;14.10;91.10;;;;;;5033059;28;20604;-77
2022/06/02 03:24:46;;;;;;;10.45;9.02;;;14.20;91.00;;;;;;5033143;28;20568;-77
2022/06/02 03:27:27;;;;;;;9.85;8.85;;;14.20;90.90;;;;;;5061875;28;20035;-77
2022/06/02 03:30:08;;;;;;;11.23;9.80;;;14.20;90.90;;;;;;5074914;28;20506;-77
2022/06/02 03:32:55;;;;;;;10.32;9.20;;;14.20;90.90;;;;;;5074943;28;20063;-77
2022/06/02 03:35:51;;;;;;;12.57;9.90;;;14.30;90.90;;;;;;5074651;28;20104;-76
2022/06/02 03:38:26;;;;;;;11.93;10.70;;;14.20;90.80;;;;;;5067274;28;20446;-77
2022/06/02 03:41:30;;;;;;;11.73;10.52;;;14.20;90.90;;;;;;5074748;28;20406;-77
2022/06/02 03:44:25;;;;;;;13.40;11.32;;;14.20;91.00;;;;;;5065171;28;20083;-76
2022/06/02 03:47:26;;;;;;;14.02;11.65;;;14.10;91.10;;;;;;5074661;28;20070;-77
2022/06/02 03:50:16;;;;;;;12.90;11.43;;;14.10;91.30;;;;;;5074607;28;20480;-76
2022/06/02 03:53:19;;;;;;;13.15;10.85;;;14.00;91.30;;;;;;5074003;28;20025;-76
2022/06/02 03:56:07;;;;;;;12.80;10.88;;;14.00;91.40;;;;;;5074505;28;20066;-76
2022/06/02 03:58:33;;;;;;;10.35;9.25;;;14.00;91.40;;;;;;5074517;28;20105;-76
2022/06/02 04:01:03;;;;;;;11.55;10.23;;;14.10;91.40;;;;;;5074260;28;20048;-77
2022/06/02 04:03:54;;;;;;;13.25;10.52;;;14.10;91.30;;;;;;5074045;28;20024;-77
2022/06/02 04:06:44;;;;;;;11.95;10.60;;;14.10;91.30;;;;;;5074287;28;20460;-77
2022/06/02 04:09:21;;;;;;;12.77;11.50;;;14.20;91.30;;;;;;5074439;28;20063;-77
2022/06/02 04:15:08;;;;;;;11.43;10.23;;;14.10;91.40;;;;;;5074275;28;20078;-77
2022/06/02 04:17:48;;;;;;;13.43;10.75;;;14.10;91.40;;;;;;5073702;28;20028;-76
2022/06/02 04:20:55;;;;;;;11.10;10.00;;;14.10;91.40;;;;;;5074025;28;20020;-76
2022/06/02 04:23:44;;;;;;;12.13;10.80;;;14.20;91.40;;;;;;5073819;28;20032;-77
2022/06/02 04:26:28;;;;;;;13.10;10.18;;;14.20;91.40;;;;;;5073879;28;20020;-76
2022/06/02 04:29:15;;;;;;;10.85;9.82;;;14.20;91.40;;;;;;5073970;28;20043;-77
2022/06/02 04:32:04;;;;;;;11.02;9.85;;;14.20;91.40;;;;;;5073804;28;20048;-77
2022/06/02 04:34:50;;;;;;;12.85;10.82;;;14.20;91.40;;;;;;5073645;28;20028;-77
2022/06/02 04:37:34;;;;;;;12.95;10.65;;;14.20;91.40;;;;;;5073915;28;20069;-77
2022/06/02 04:40:17;;;;;;;11.00;9.43;;;14.20;91.50;;;;;;5073488;28;20044;-77
2022/06/02 04:42:58;;;;;;;10.70;9.60;;;14.20;91.80;;;;;;5073852;28;20074;-77
2022/06/02 04:45:42;;;;;;;11.50;10.23;;;14.20;91.70;;;;;;5073393;28;20039;-77
2022/06/02 04:48:24;;;;;;;11.40;10.20;;;14.20;91.90;;;;;;5073205;28;20159;-77
2022/06/02 04:50:55;;;;;;;10.70;9.63;;;14.20;92.00;;;;;;5073444;28;20035;-76
2022/06/02 04:53:32;;;;;;;11.77;10.27;;;14.30;92.00;;;;;;5073383;28;20056;-77
2022/06/02 04:56:32;;;;;;;11.40;10.07;;;14.30;92.10;;;;;;5073530;28;20101;-77
2022/06/02 04:59:34;;;;;;;11.40;10.20;;;14.30;92.20;;;;;;5073608;28;20021;-77
2022/06/02 05:02:03;;;;;;;11.13;10.10;;;14.40;92.20;;;;;;5049963;28;20047;-77
2022/06/02 05:04:54;;;;;;;12.18;10.90;;;14.40;92.30;;;;;;5072562;28;20047;-77
2022/06/02 05:07:31;;;;;;;14.68;11.52;;;14.40;92.40;;;;;;5073090;28;20021;-77
2022/06/02 05:10:25;;;;;;;10.95;9.85;;;14.40;92.40;;;;;;5072824;28;20403;-77
2022/06/02 05:13:04;;;;;;;10.48;9.48;;;14.40;92.50;;;;;;5073358;28;20028;-77
2022/06/02 05:16:02;;;;;;;11.77;10.45;;;14.50;92.50;;;;;;5073093;28;20515;-77
2022/06/02 05:18:56;;;;;;;11.00;9.75;;;14.50;92.50;;;;;;5035555;28;20033;-77
2022/06/02 05:21:40;;;;;;;10.90;9.80;;;14.50;92.60;;;;;;5041888;28;20056;-77
2022/06/02 05:24:32;;;;;;;11.73;10.48;;;14.50;92.60;;;;;;5073272;28;20051;-77
2022/06/02 05:27:27;;;;;;;16.63;12.20;;;14.50;92.70;;;;;;5072847;28;20025;-77
2022/06/02 05:30:19;;;;;;;14.73;13.07;;;14.60;92.90;;;;;;5052967;28;20119;-77
2022/06/02 05:33:16;;;;;;;14.25;12.70;;;14.50;93.00;;;;;;5072817;28;20033;-77
2022/06/02 05:36:01;;;;;;;17.17;15.30;;;14.50;93.30;;;;;;5072964;28;20031;-77
2022/06/02 05:38:48;;;;;;;14.38;12.98;;;14.40;93.60;;;;;;5073152;28;20024;-77
2022/06/02 05:41:34;;;;;;;13.57;12.13;;;14.30;93.80;;;;;;5072758;28;20081;-76
2022/06/02 05:44:49;;;;;;;14.35;12.85;;;14.40;93.90;;;;;;5073042;28;20018;-75
2022/06/02 05:47:21;;;;;;;16.15;13.27;;;14.40;94.00;;;;;;5039657;28;20044;-76
2022/06/02 05:50:19;;;;;;;4.28;3.70;;;14.40;94.30;;;;;;5073412;28;20031;-82
2022/06/02 05:53:14;;;;;;;6.47;5.78;;;14.40;94.00;;;;;;5048432;28;20046;-83
2022/06/02 05:56:03;;;;;;;4.97;4.47;;;14.70;93.60;;;;;;5072307;28;20469;-83
2022/06/02 05:58:50;;;;;;;4.97;4.47;;;15.10;93.30;;;;;;5071235;28;20417;-84
2022/06/02 06:01:31;;;;;;;8.13;7.30;;;15.40;93.00;;;;;;5070754;28;20021;-77
2022/06/02 06:04:25;;;;;;;13.07;10.85;;;15.70;92.80;;;;;;5070927;28;20025;-77
2022/06/02 06:07:13;;;;;;;13.95;12.55;;;15.80;92.60;;;;;;5072355;28;20194;-78
2022/06/02 06:09:48;;;;;;;13.13;11.43;;;15.60;92.60;;;;;;5072355;28;20028;-76
2022/06/02 06:12:31;;;;;;;13.45;10.05;;;15.50;92.70;;;;;;5071249;28;20040;-76
2022/06/02 06:14:59;;;;;;;11.90;10.73;;;15.50;93.00;;;;;;5070501;28;20025;-76
2022/06/02 06:17:47;;;;;;;11.50;10.40;;;15.50;93.10;;;;;;5074547;28;20472;-77
2022/06/02 06:20:48;;;;;;;10.82;9.73;;;15.50;93.20;;;;;;5055797;28;20541;-77
2022/06/02 06:23:23;;;;;;;12.02;8.98;;;15.60;93.20;;;;;;5054840;28;20412;-76
2022/06/02 06:26:07;;;;;;;11.88;10.02;;;15.60;93.10;;;;;;5055804;28;20036;-76
2022/06/02 06:28:40;;;;;;;12.40;10.70;;;15.70;93.10;;;;;;5055919;28;20021;-78
2022/06/02 06:31:28;;;;;;;12.18;8.45;;;15.60;93.20;;;;;;5055652;28;20497;-79
2022/06/02 06:34:23;;;;;;;8.25;6.80;;;15.60;93.40;;;;;;5055857;28;20132;-79
2022/06/02 06:37:24;;;;;;;6.90;4.63;;;15.70;93.30;;;;;;5055767;28;20477;-77
2022/06/02 06:40:01;;;;;;;3.95;2.80;;;15.80;92.40;;;;;;5024990;28;20060;-75
2022/06/02 06:42:42;;;;;;;7.45;3.25;;;15.80;92.40;;;;;;5055736;28;20108;-77
2022/06/02 06:45:17;;;;;;;5.15;3.90;;;16.00;92.20;;;;;;5055946;28;20029;-77
2022/06/02 06:47:52;;;;;;;4.93;3.25;;;16.00;91.60;;;;;;5055421;28;20121;-75
2022/06/02 06:50:23;;;;;;;5.32;3.65;;;15.90;91.70;;;;;;5055825;28;20021;-75
2022/06/02 06:53:09;;;;;;;6.97;2.80;;;15.80;91.60;;;;;;5055435;28;20025;-75
2022/06/02 06:55:46;;;;;;;5.10;3.88;;;15.90;91.90;;;;;;5055760;28;20120;-75
2022/06/02 06:58:44;;;;;;;4.90;3.15;;;16.10;91.70;;;;;;5055382;28;20021;-75
2022/06/02 07:01:29;;;;;;;5.28;2.05;;;16.10;91.60;;;;;;5034602;28;20077;-75
2022/06/02 07:04:19;;;;;;;6.65;3.63;;;16.20;91.10;;;;;;5055310;28;20095;-75
2022/06/02 07:07:26;;;;;;;6.57;3.88;;;16.30;90.90;;;;;;5055019;28;20021;-75
2022/06/02 07:10:13;;;;;;;4.88;3.13;;;16.40;90.80;;;;;;5055411;28;20041;-76
2022/06/02 07:12:55;;;;;;;5.65;3.35;;;16.30;91.20;;;;;;5055206;28;20720;-76
2022/06/02 07:15:33;;;;;;;6.65;3.13;;;16.40;90.90;;;;;;5055169;28;20488;-76
2022/06/02 07:18:21;;;;;;;5.45;2.53;;;16.60;90.20;;;;;;5055097;28;20439;-75
2022/06/02 07:21:03;;;;;;;2.22;1.38;;;16.60;88.50;;;;;;5055112;28;20031;-75
2022/06/02 07:23:28;;;;;;;7.15;3.40;;;16.60;88.00;;;;;;5055282;28;20021;-75
2022/06/02 07:26:06;;;;;;;2.25;1.65;;;16.70;89.40;;;;;;5055165;28;20431;-75
2022/06/02 07:28:56;;;;;;;5.82;2.03;;;16.70;88.40;;;;;;5053989;28;20025;-75
2022/06/02 07:31:37;;;;;;;4.10;1.98;;;16.80;88.60;;;;;;5054842;28;20033;-76
2022/06/02 07:34:12;;;;;;;3.63;1.50;;;16.80;87.60;;;;;;5054807;28;20059;-75
2022/06/02 07:36:38;;;;;;;4.82;2.20;;;16.80;85.80;;;;;;5054886;28;20025;-75
2022/06/02 07:39:19;;;;;;;2.38;1.92;;;16.70;85.10;;;;;;5054868;28;20021;-75
2022/06/02 07:42:06;;;;;;;4.75;1.55;;;16.70;85.70;;;;;;5054090;28;20459;-75
2022/06/02 07:45:09;;;;;;;2.20;1.73;;;16.80;85.90;;;;;;5054503;28;20086;-75
2022/06/02 07:47:59;;;;;;;3.95;1.88;;;17.00;86.30;;;;;;5054193;28;20127;-76
2022/06/02 07:50:29;;;;;;;2.65;1.58;;;17.00;85.20;;;;;;5054124;28;20116;-76
2022/06/02 07:53:17;;;;;;;3.03;1.90;;;16.80;84.90;;;;;;5054414;28;20060;-76
2022/06/02 07:55:42;;;;;;;4.13;1.70;;;16.70;85.10;;;;;;5054031;28;20044;-76
2022/06/02 07:58:25;;;;;;;3.08;1.35;;;16.60;85.40;;;;;;5054259;28;20029;-76
2022/06/02 08:01:02;;;;;;;2.22;1.15;;;16.70;85.70;;;;;;5054556;28;20028;-79
2022/06/02 08:03:37;;;;;;;3.70;1.42;;;16.80;85.60;;;;;;5054342;28;20087;-78
2022/06/02 08:06:16;;;;;;;2.80;1.38;;;16.90;85.70;;;;;;5054217;28;20045;-77
2022/06/02 08:09:13;;;;;;;2.15;1.23;;;16.90;84.70;;;;;;5054475;28;20032;-78
2022/06/02 08:12:03;;;;;;;4.45;1.10;;;16.90;84.80;;;;;;5054064;28;20033;-78
2022/06/02 08:14:56;;;;;;;3.58;1.38;;;17.00;84.40;;;;;;5053983;28;20103;-77
2022/06/02 08:18:02;;;;;;;3.63;1.63;;;16.90;82.90;;;;;;5054169;28;20029;-78
2022/06/02 08:20:52;;;;;;;2.80;1.00;;;17.10;83.10;;;;;;5022876;28;20037;-78
2022/06/02 08:23:23;;;;;;;2.50;0.73;;;17.30;80.90;;;;;;5053812;28;20469;-78
2022/06/02 08:26:18;;;;;;;1.35;0.60;;;17.40;80.40;;;;;;5053972;28;20074;-76
2022/06/02 08:28:59;;;;;;;3.33;1.10;;;17.70;80.30;;;;;;5070404;28;20357;-76
2022/06/02 08:31:59;;;;;;;2.53;0.77;;;17.90;79.40;;;;;;5071837;28;20369;-77
2022/06/02 08:35:04;;;;;;;2.10;0.60;;;18.10;79.20;;;;;;5072376;28;20086;-77
2022/06/02 08:37:56;;;;;;;1.90;0.85;;;18.30;77.50;;;;;;5071650;28;20030;-77
2022/06/02 08:40:54;;;;;;;4.85;0.80;;;18.40;75.90;;;;;;5035370;28;20040;-77
2022/06/02 08:43:41;;;;;;;2.80;0.60;;;18.50;75.30;;;;;;5038913;28;20040;-77
2022/06/02 08:46:25;;;;;;;1.55;0.80;;;18.60;76.30;;;;;;5072440;28;20028;-77
2022/06/02 08:49:15;;;;;;;1.27;0.50;;;18.70;75.40;;;;;;5072204;28;20040;-77
2022/06/02 08:52:00;;;;;;;2.47;0.73;;;18.80;74.10;;;;;;5068922;28;20063;-77
2022/06/02 08:54:52;;;;;;;1.92;0.50;;;19.00;73.20;;;;;;5072063;28;20165;-77
2022/06/02 08:57:39;;;;;;;1.90;0.50;;;19.10;73.10;;;;;;5072401;28;20417;-77
2022/06/02 09:00:28;;;;;;;2.33;0.60;;;19.10;72.70;;;;;;5071976;28;20032;-77
2022/06/02 09:03:34;;;;;;;3.05;0.50;;;19.20;69.80;;;;;;5072999;28;20105;-78
2022/06/02 09:06:18;;;;;;;2.03;0.70;;;19.20;70.10;;;;;;5072906;28;20024;-76
2022/06/02 09:08:49;;;;;;;3.00;0.70;;;19.20;70.90;;;;;;5073117;28;20021;-78
2022/06/02 09:11:33;;;;;;;2.13;0.40;;;19.30;70.40;;;;;;5073029;28;20036;-76
2022/06/02 09:14:23;;;;;;;1.80;0.60;;;19.50;68.70;;;;;;5073101;28;20032;-77
2022/06/02 09:17:06;;;;;;;0.77;0.40;;;19.60;69.40;;;;;;5073396;28;20078;-78
2022/06/02 09:19:57;;;;;;;1.08;0.38;;;19.80;68.50;;;;;;5073141;28;20430;-76
2022/06/02 09:22:34;;;;;;;2.20;0.50;;;19.90;68.00;;;;;;5073125;28;20033;-76
2022/06/02 09:25:30;;;;;;;1.70;0.50;;;20.10;67.90;;;;;;5073412;28;20017;-77
2022/06/02 09:28:27;;;;;;;3.00;0.40;;;20.10;66.90;;;;;;5073289;28;20043;-77
2022/06/02 09:31:05;;;;;;;3.25;0.20;;;20.20;65.00;;;;;;5072956;28;20093;-76
2022/06/02 09:33:59;;;;;;;2.03;0.20;;;20.20;63.60;;;;;;5072944;28;20480;-76
2022/06/02 09:36:37;;;;;;;1.25;0.20;;;20.30;61.80;;;;;;5072954;28;20028;-77
2022/06/02 09:39:11;;;;;;;1.90;0.30;;;20.40;61.30;;;;;;5072826;28;20024;-77
2022/06/02 09:41:40;;;;;;;4.35;0.20;;;20.50;60.90;;;;;;5072766;28;20031;-77
2022/06/02 09:44:15;;;;;;;1.35;0.68;;;20.60;60.10;;;;;;5073250;28;20063;-76
2022/06/02 09:47:01;;;;;;;2.90;0.80;;;20.60;62.60;;;;;;5072732;28;20032;-76
2022/06/02 09:49:41;;;;;;;3.42;0.80;;;20.70;64.30;;;;;;5073191;28;20055;-78
2022/06/02 09:52:16;;;;;;;2.08;0.70;;;20.70;66.00;;;;;;5075031;28;20778;-76
2022/06/02 09:54:56;;;;;;;2.45;0.70;;;20.60;65.70;;;;;;5073766;28;20024;-79
2022/06/02 10:00:38;;;;;;;2.10;0.50;;;20.50;66.10;;;;;;5074835;28;20466;-78
2022/06/02 10:03:10;;;;;;;4.28;0.57;;;20.60;65.60;;;;;;5076039;28;20032;-78
2022/06/02 10:05:54;;;;;;;1.37;0.60;;;20.70;65.30;;;;;;5076766;28;20035;-77
2022/06/02 10:08:53;;;;;;;1.23;0.50;;;20.70;65.30;;;;;;5076821;28;20059;-77
2022/06/02 10:15:17;;;;;;;4.30;0.63;;;20.80;63.30;;;;;;5014702;28;20045;-77
2022/06/02 10:17:56;;;;;;;1.90;0.75;;;20.90;62.60;;;;;;5076208;28;20025;-77
2022/06/02 10:20:27;;;;;;;1.80;0.50;;;21.00;60.80;;;;;;5075391;28;20039;-76
2022/06/02 10:22:53;;;;;;;1.58;0.43;;;20.90;62.40;;;;;;5076025;28;20024;-76
2022/06/02 10:25:47;;;;;;;0.98;0.40;;;20.90;62.10;;;;;;5076006;28;20083;-76
2022/06/02 10:28:43;;;;;;;1.63;0.50;;;21.10;60.80;;;;;;5076200;28;20025;-76
2022/06/02 10:31:20;;;;;;;2.97;0.60;;;21.00;60.40;;;;;;5075835;28;20114;-76
2022/06/02 10:34:01;;;;;;;1.13;0.70;;;20.60;60.80;;;;;;5075859;28;20025;-77
2022/06/02 10:36:57;;;;;;;2.55;0.90;;;20.50;61.50;;;;;;5075932;28;20070;-77
2022/06/02 10:39:47;;;;;;;2.75;0.98;;;20.20;61.50;;;;;;5075645;28;20451;-77
2022/06/02 10:42:20;;;;;;;1.75;0.60;;;20.10;61.90;;;;;;5075496;28;20028;-77
2022/06/02 10:45:06;;;;;;;2.78;1.00;;;20.30;62.80;;;;;;5075709;28;20107;-77
2022/06/02 10:47:51;;;;;;;3.55;0.90;;;20.50;63.20;;;;;;5075373;28;20048;-77
2022/06/02 10:50:48;;;;;;;2.45;0.63;;;20.80;61.90;;;;;;5075797;28;20032;-77
2022/06/02 10:53:29;;;;;;;2.83;0.60;;;20.90;60.60;;;;;;5054401;28;20041;-77
2022/06/02 10:56:16;;;;;;;1.58;0.40;;;21.00;60.40;;;;;;5075922;28;20021;-77
2022/06/02 10:59:03;;;;;;;1.30;0.77;;;21.10;60.90;;;;;;5075342;28;20467;-77
2022/06/02 11:02:05;;;;;;;2.33;0.50;;;21.20;59.70;;;;;;5074819;28;20028;-77
2022/06/02 11:05:09;;;;;;;2.70;0.40;;;21.40;59.30;;;;;;5075742;28;20375;-78
2022/06/02 11:08:12;;;;;;;2.97;0.43;;;21.50;58.60;;;;;;5059589;28;20025;-77
2022/06/02 11:10:59;;;;;;;1.65;0.47;;;21.70;58.80;;;;;;5074984;28;20020;-77
2022/06/02 11:13:54;;;;;;;2.45;0.60;;;21.70;58.40;;;;;;5075326;28;20538;-77
2022/06/02 11:17:11;;;;;;;1.27;0.30;;;21.80;57.30;;;;;;5075205;28;20020;-77
2022/06/02 11:20:06;;;;;;;1.77;0.30;;;22.00;58.40;;;;;;5075007;28;20025;-77
2022/06/02 11:22:52;;;;;;;2.75;0.45;;;22.20;56.40;;;;;;5074637;28;20041;-76
2022/06/02 11:25:32;;;;;;;1.77;0.30;;;22.40;56.60;;;;;;5075131;28;20017;-77
2022/06/02 11:28:10;;;;;;;1.58;0.22;;;22.40;55.70;;;;;;5074878;28;20028;-76
2022/06/02 11:30:51;;;;;;;1.92;0.40;;;22.50;56.10;;;;;;5075005;28;20029;-78
2022/06/02 11:33:22;;;;;;;1.27;0.30;;;22.50;55.70;;;;;;5074966;28;20028;-78
2022/06/02 11:36:35;;;;;;;3.38;0.40;;;22.50;56.80;;;;;;5074637;28;20434;-77
2022/06/02 11:39:36;;;;;;;2.03;0.50;;;22.60;55.50;;;;;;5056452;28;20041;-77
2022/06/02 11:42:26;;;;;;;0.93;0.30;;;22.80;54.40;;;;;;5070605;28;20029;-77
2022/06/02 11:45:35;;;;;;;2.75;0.75;;;22.90;51.30;;;;;;5074874;28;20021;-77
2022/06/02 11:48:26;;;;;;;1.77;0.20;;;23.00;52.00;;;;;;5074411;28;20542;-77
2022/06/02 11:51:18;;;;;;;1.13;0.17;;;23.10;52.10;;;;;;5074509;28;20033;-77
2022/06/02 11:53:47;;;;;;;1.02;0.20;;;23.20;51.30;;;;;;5074507;28;20100;-77
2022/06/02 11:56:30;;;;;;;3.53;0.38;;;23.20;52.30;;;;;;5073958;28;20032;-77
2022/06/02 11:59:18;;;;;;;1.60;0.30;;;23.30;51.70;;;;;;5074282;28;20025;-78
2022/06/02 12:02:10;;;;;;;1.35;0.40;;;23.40;53.10;;;;;;5074025;28;20070;-77
2022/06/02 12:04:59;;;;;;;2.65;0.43;;;23.40;52.60;;;;;;5074059;28;20028;-77
2022/06/02 12:07:49;;;;;;;2.00;0.38;;;23.40;52.00;;;;;;5073682;28;20034;-77
2022/06/02 12:10:41;;;;;;;1.40;0.30;;;23.30;49.90;;;;;;5074300;28;20029;-78
2022/06/02 12:13:29;;;;;;;1.88;0.30;;;23.20;50.80;;;;;;5073853;28;20028;-77
2022/06/02 12:16:26;;;;;;;2.45;0.40;;;23.30;52.00;;;;;;5073868;28;20480;-78
2022/06/02 12:19:01;;;;;;;2.47;0.45;;;23.10;50.80;;;;;;5073999;28;20074;-78
2022/06/02 12:21:32;;;;;;;1.88;0.25;;;23.00;51.50;;;;;;5073850;28;20029;-77
2022/06/02 12:24:19;;;;;;;0.40;0.17;;;23.00;51.80;;;;;;5073890;28;20024;-77
2022/06/02 12:27:09;;;;;;;1.73;0.40;;;23.00;51.80;;;;;;5073933;28;20033;-77
2022/06/02 12:29:56;;;;;;;0.80;0.20;;;22.70;51.10;;;;;;5074028;28;20032;-77
2022/06/02 12:32:43;;;;;;;1.33;0.22;;;22.50;51.70;;;;;;5073666;28;20112;-77
2022/06/02 12:35:47;;;;;;;1.75;0.38;;;22.30;51.40;;;;;;5073776;28;20503;-77
2022/06/02 12:38:24;;;;;;;0.98;0.20;;;22.20;53.30;;;;;;5073759;28;20035;-78
2022/06/02 12:41:29;;;;;;;1.52;0.35;;;22.20;53.10;;;;;;5073211;28;20585;-78
2022/06/02 12:44:24;;;;;;;3.75;0.20;;;22.20;52.10;;;;;;5072686;28;20032;-78
2022/06/02 12:46:58;;;;;;;1.00;0.30;;;22.30;53.90;;;;;;5073364;28;20040;-77
2022/06/02 12:50:10;;;;;;;0.90;0.32;;;22.50;53.50;;;;;;5073449;28;20434;-77
2022/06/02 12:53:13;;;;;;;0.75;0.20;;;22.50;52.10;;;;;;5030825;28;20602;-77
2022/06/02 12:56:03;;;;;;;2.75;0.30;;;22.40;51.10;;;;;;5072951;28;20028;-77
2022/06/02 12:58:53;;;;;;;2.70;0.82;;;22.40;51.50;;;;;;5073158;28;20032;-77
2022/06/02 13:01:56;;;;;;;2.05;0.40;;;22.40;51.90;;;;;;5073420;28;20047;-77
2022/06/02 13:04:34;;;;;;;1.38;0.40;;;22.50;51.90;;;;;;5073256;28;20100;-77
2022/06/02 13:07:27;;;;;;;1.77;0.47;;;22.70;52.90;;;;;;5073325;28;20104;-77
2022/06/02 13:09:59;;;;;;;2.42;0.50;;;22.90;51.70;;;;;;5073128;28;20067;-77
2022/06/02 13:12:31;;;;;;;1.33;0.50;;;22.80;50.70;;;;;;5073335;28;20024;-77
2022/06/02 13:15:11;;;;;;;5.00;0.50;;;22.90;52.30;;;;;;5072871;28;20094;-77
2022/06/02 13:17:52;;;;;;;1.80;0.30;;;23.00;51.20;;;;;;5073089;28;20043;-77
2022/06/02 13:20:37;;;;;;;1.67;0.43;;;23.10;50.40;;;;;;5073015;28;20020;-77
2022/06/02 13:23:46;;;;;;;2.30;0.45;;;23.20;50.40;;;;;;5072281;28;20027;-78
2022/06/02 13:26:29;;;;;;;1.17;0.40;;;23.40;50.50;;;;;;5071199;28;20025;-78
2022/06/02 13:29:19;;;;;;;2.20;0.30;;;23.50;50.00;;;;;;5072572;28;20388;-77
2022/06/02 13:32:31;;;;;;;1.25;0.35;;;23.60;49.90;;;;;;5072799;28;20120;-77
2022/06/02 13:35:18;;;;;;;1.02;0.50;;;23.70;48.50;;;;;;5072941;28;20029;-77
2022/06/02 13:37:55;;;;;;;2.45;0.45;;;23.50;48.80;;;;;;5072832;28;20085;-77
2022/06/02 13:40:39;;;;;;;2.70;0.40;;;23.50;49.20;;;;;;5072889;28;20034;-77
2022/06/02 13:43:37;;;;;;;2.33;0.80;;;23.60;49.80;;;;;;5072993;28;20021;-77
2022/06/02 13:46:40;;;;;;;1.30;0.60;;;23.50;49.80;;;;;;5072641;28;20024;-77
2022/06/02 13:49:24;;;;;;;1.63;0.50;;;23.50;50.40;;;;;;5072826;28;20070;-77
2022/06/02 13:52:25;;;;;;;2.03;0.47;;;23.50;49.90;;;;;;5072680;28;20113;-77
2022/06/02 13:58:48;;;;;;;1.10;0.45;;;23.70;48.60;;;;;;5072971;28;20059;-78
2022/06/02 14:01:32;;;;;;;3.72;0.40;;;23.90;49.40;;;;;;5073026;28;20377;-77
2022/06/02 14:04:00;;;;;;;2.33;0.30;;;24.10;50.20;;;;;;5072662;28;20021;-78
2022/06/02 14:06:32;;;;;;;1.02;0.30;;;24.00;49.60;;;;;;5072629;28;20017;-76
2022/06/02 14:09:14;;;;;;;1.38;0.40;;;23.90;50.30;;;;;;5072428;28;20025;-77
2022/06/02 14:11:48;;;;;;;3.80;0.43;;;23.70;50.30;;;;;;5072828;28;20033;-78
2022/06/02 14:14:51;;;;;;;2.15;0.40;;;23.80;51.00;;;;;;5072499;28;20106;-77
2022/06/02 14:17:31;;;;;;;6.28;0.63;;;23.80;49.90;;;;;;5072706;28;20095;-78
2022/06/02 14:20:21;;;;;;;1.48;0.40;;;23.80;51.30;;;;;;5072718;28;20028;-77
2022/06/02 14:22:57;;;;;;;3.00;0.30;;;23.90;49.70;;;;;;5072540;28;20025;-76
2022/06/02 14:25:44;;;;;;;1.35;0.73;;;23.70;49.60;;;;;;5072197;28;20027;-77
2022/06/02 14:28:25;;;;;;;1.23;0.20;;;23.50;50.40;;;;;;5071985;28;20066;-77
2022/06/02 14:31:07;;;;;;;0.80;0.20;;;23.50;49.90;;;;;;5071893;28;20032;-78
2022/06/02 14:33:39;;;;;;;1.27;0.20;;;23.70;49.40;;;;;;5072045;28;20016;-78
2022/06/02 14:36:23;;;;;;;;;;;23.80;49.30;;;;;;5072723;28;20377;-77